createdAt,value
2023-05-14T00:00:55.209Z,10.12
2023-05-14T00:01:55.186Z,10.10
2023-05-14T00:02:55.447Z,10.07
2023-05-14T00:03:55.246Z,10.06
2023-05-14T00:04:55.161Z,10.06
2023-05-14T00:05:55.132Z,10.05
2023-05-14T00:06:55.102Z,10.03
2023-05-14T00:07:55.101Z,10.03
2023-05-14T00:08:55.072Z,10.00
2023-05-14T00:09:55.081Z,10.02
2023-05-14T00:10:55.056Z,10.02
2023-05-14T00:11:55.034Z,10.00
2023-05-14T00:12:55.020Z,9.97
2023-05-14T00:13:55.009Z,9.94
2023-05-14T00:14:55.013Z,9.94
2023-05-14T00:15:55.069Z,9.94
2023-05-14T00:16:54.979Z,9.95
2023-05-14T00:17:55.130Z,9.95
2023-05-14T00:18:55.098Z,9.94
2023-05-14T00:19:54.944Z,9.90
2023-05-14T00:20:55.054Z,9.85
2023-05-14T00:21:54.896Z,9.82
2023-05-14T00:22:54.891Z,9.80
2023-05-14T00:23:54.892Z,9.81
2023-05-14T00:24:54.872Z,9.77
2023-05-14T00:25:54.847Z,9.72
2023-05-14T00:26:54.836Z,9.70
2023-05-14T00:27:54.817Z,9.70
2023-05-14T00:28:54.848Z,9.70
2023-05-14T00:29:54.792Z,9.69
2023-05-14T00:30:54.847Z,9.67
2023-05-14T00:31:54.838Z,9.67
2023-05-14T00:32:54.834Z,9.70
2023-05-14T00:33:54.759Z,9.72
2023-05-14T00:34:54.720Z,9.73
2023-05-14T00:35:54.716Z,9.74
2023-05-14T00:36:54.707Z,9.74
2023-05-14T00:37:54.684Z,9.74
2023-05-14T00:38:54.704Z,9.76
2023-05-14T00:39:54.654Z,9.72
2023-05-14T00:40:54.658Z,9.69
2023-05-14T00:41:54.639Z,9.67
2023-05-14T00:42:54.647Z,9.66
2023-05-14T00:43:54.627Z,9.64
2023-05-14T00:44:54.587Z,9.67
2023-05-14T00:45:54.592Z,9.69
2023-05-14T00:46:54.590Z,9.72
2023-05-14T00:47:54.599Z,9.73
2023-05-14T00:48:54.539Z,9.74
2023-05-14T00:49:54.526Z,9.74
2023-05-14T00:50:54.519Z,9.73
2023-05-14T00:51:54.497Z,9.73
2023-05-14T00:52:54.539Z,9.76
2023-05-14T00:53:54.472Z,9.80
2023-05-14T00:54:54.465Z,9.82
2023-05-14T00:55:54.508Z,9.82
2023-05-14T00:56:54.444Z,9.85
2023-05-14T00:57:54.464Z,9.85
2023-05-14T00:58:54.431Z,9.84
2023-05-14T00:59:54.393Z,9.80
2023-05-14T01:00:54.434Z,9.77
2023-05-14T01:01:54.368Z,9.76
2023-05-14T01:02:54.436Z,9.74
2023-05-14T01:03:54.394Z,9.72
2023-05-14T01:04:54.317Z,9.69
2023-05-14T01:05:54.299Z,9.70
2023-05-14T01:06:54.317Z,9.67
2023-05-14T01:07:54.287Z,9.64
2023-05-14T01:08:54.264Z,9.59
2023-05-14T01:09:54.252Z,9.56
2023-05-14T01:10:54.254Z,9.56
2023-05-14T01:11:54.243Z,9.56
2023-05-14T01:12:54.237Z,9.58
2023-05-14T01:13:54.200Z,9.59
2023-05-14T01:14:54.225Z,9.59
2023-05-14T01:15:54.187Z,9.62
2023-05-14T01:16:54.215Z,9.63
2023-05-14T01:17:54.192Z,9.66
2023-05-14T01:18:54.194Z,9.69
2023-05-14T01:19:54.114Z,9.70
2023-05-14T01:20:54.119Z,9.74
2023-05-14T01:21:54.118Z,9.73
2023-05-14T01:22:54.077Z,9.67
2023-05-14T01:23:54.048Z,9.66
2023-05-14T01:24:54.062Z,9.66
2023-05-14T01:25:54.055Z,9.63
2023-05-14T01:26:54.024Z,9.62
2023-05-14T01:27:54.052Z,9.63
2023-05-14T01:28:54.001Z,9.63
2023-05-14T01:29:54.006Z,9.66
2023-05-14T01:30:53.984Z,9.69
2023-05-14T01:31:54.013Z,9.70
2023-05-14T01:32:54.008Z,9.73
2023-05-14T01:33:53.919Z,9.74
2023-05-14T01:34:53.915Z,9.76
2023-05-14T01:35:53.936Z,9.77
2023-05-14T01:36:53.958Z,9.81
2023-05-14T01:37:53.877Z,9.87
2023-05-14T01:38:53.854Z,9.90
2023-05-14T01:39:53.847Z,9.92
2023-05-14T01:40:53.853Z,9.94
2023-05-14T01:41:53.812Z,9.95
2023-05-14T01:42:53.840Z,9.97
2023-05-14T01:43:53.791Z,10.00
2023-05-14T01:44:53.822Z,10.02
2023-05-14T01:45:53.902Z,10.05
2023-05-14T01:46:53.751Z,10.06
2023-05-14T01:47:53.896Z,10.05
2023-05-14T01:48:53.721Z,10.05
2023-05-14T01:49:53.722Z,10.06
2023-05-14T01:50:53.696Z,10.06
2023-05-14T01:51:53.676Z,10.10
2023-05-14T01:52:53.662Z,10.12
2023-05-14T01:53:53.649Z,10.13
2023-05-14T01:54:53.653Z,10.13
2023-05-14T01:55:53.630Z,10.17
2023-05-14T01:56:53.637Z,10.20
2023-05-14T01:57:53.591Z,10.23
2023-05-14T01:58:53.581Z,10.23
2023-05-14T01:59:53.582Z,10.24
2023-05-14T02:00:53.559Z,10.27
2023-05-14T02:01:53.676Z,10.28
2023-05-14T02:02:53.613Z,10.28
2023-05-14T02:03:53.576Z,10.27
2023-05-14T02:04:53.518Z,10.24
2023-05-14T02:05:53.483Z,10.23
2023-05-14T02:06:53.472Z,10.24
2023-05-14T02:07:53.444Z,10.23
2023-05-14T02:08:53.461Z,10.23
2023-05-14T02:09:53.447Z,10.23
2023-05-14T02:10:53.436Z,10.21
2023-05-14T02:11:53.396Z,10.21
2023-05-14T02:12:53.411Z,10.20
2023-05-14T02:13:53.396Z,10.23
2023-05-14T02:14:53.362Z,10.24
2023-05-14T02:15:53.377Z,10.23
2023-05-14T02:16:53.342Z,10.23
2023-05-14T02:17:53.384Z,10.21
2023-05-14T02:18:53.379Z,10.18
2023-05-14T02:19:53.294Z,10.20
2023-05-14T02:20:53.291Z,10.18
2023-05-14T02:21:53.279Z,10.13
2023-05-14T02:22:53.296Z,10.10
2023-05-14T02:23:53.255Z,10.12
2023-05-14T02:24:53.243Z,10.12
2023-05-14T02:25:53.209Z,10.13
2023-05-14T02:26:53.209Z,10.13
2023-05-14T02:27:53.254Z,10.15
2023-05-14T02:28:53.195Z,10.13
2023-05-14T02:29:53.179Z,10.13
2023-05-14T02:30:53.183Z,10.12
2023-05-14T02:31:53.236Z,10.10
2023-05-14T02:32:53.231Z,10.10
2023-05-14T02:33:53.112Z,10.10
2023-05-14T02:34:53.103Z,10.12
2023-05-14T02:35:53.078Z,10.15
2023-05-14T02:36:53.079Z,10.13
2023-05-14T02:37:53.048Z,10.15
2023-05-14T02:38:53.037Z,10.15
2023-05-14T02:39:53.018Z,10.13
2023-05-14T02:40:53.074Z,10.12
2023-05-14T02:41:53.027Z,10.12
2023-05-14T02:42:52.993Z,10.10
2023-05-14T02:43:52.972Z,10.12
2023-05-14T02:44:52.964Z,10.10
2023-05-14T02:45:52.952Z,10.07
2023-05-14T02:46:52.974Z,10.06
2023-05-14T02:47:52.987Z,10.05
2023-05-14T02:48:52.920Z,10.06
2023-05-14T02:49:52.896Z,10.05
2023-05-14T02:50:52.905Z,10.03
2023-05-14T02:51:52.892Z,10.05
2023-05-14T02:52:52.858Z,10.06
2023-05-14T02:53:52.852Z,10.06
2023-05-14T02:54:52.829Z,10.06
2023-05-14T02:55:52.820Z,10.05
2023-05-14T02:56:52.830Z,10.03
2023-05-14T02:57:52.785Z,10.03
2023-05-14T02:58:52.789Z,10.05
2023-05-14T02:59:52.757Z,10.05
2023-05-14T03:00:52.783Z,10.05
2023-05-14T03:01:52.810Z,10.05
2023-05-14T03:02:52.870Z,10.03
2023-05-14T03:03:52.701Z,10.03
2023-05-14T03:04:52.710Z,10.05
2023-05-14T03:05:52.687Z,10.03
2023-05-14T03:06:52.690Z,10.03
2023-05-14T03:07:52.643Z,10.05
2023-05-14T03:08:52.640Z,10.06
2023-05-14T03:09:52.622Z,10.09
2023-05-14T03:10:52.632Z,10.07
2023-05-14T03:11:52.611Z,10.06
2023-05-14T03:12:52.594Z,10.09
2023-05-14T03:13:52.568Z,10.09
2023-05-14T03:14:52.558Z,10.05
2023-05-14T03:15:52.557Z,10.03
2023-05-14T03:16:52.610Z,10.03
2023-05-14T03:17:52.548Z,10.02
2023-05-14T03:18:52.526Z,9.97
2023-05-14T03:19:52.487Z,10.00
2023-05-14T03:20:52.507Z,10.00
2023-05-14T03:21:52.456Z,9.97
2023-05-14T03:22:52.450Z,9.99
2023-05-14T03:23:52.439Z,9.95
2023-05-14T03:24:52.437Z,9.95
2023-05-14T03:25:52.436Z,9.94
2023-05-14T03:26:52.404Z,9.94
2023-05-14T03:27:52.409Z,9.92
2023-05-14T03:28:52.372Z,9.85
2023-05-14T03:29:52.383Z,9.85
2023-05-14T03:30:52.388Z,9.85
2023-05-14T03:31:52.355Z,9.85
2023-05-14T03:32:52.362Z,9.87
2023-05-14T03:33:52.300Z,9.88
2023-05-14T03:34:52.316Z,9.88
2023-05-14T03:35:52.266Z,9.88
2023-05-14T03:36:52.261Z,9.87
2023-05-14T03:37:52.239Z,9.84
2023-05-14T03:38:52.250Z,9.84
2023-05-14T03:39:52.241Z,9.85
2023-05-14T03:40:52.212Z,9.85
2023-05-14T03:41:52.232Z,9.84
2023-05-14T03:42:52.180Z,9.84
2023-05-14T03:43:52.181Z,9.85
2023-05-14T03:44:52.170Z,9.85
2023-05-14T03:45:52.154Z,9.87
2023-05-14T03:46:52.128Z,9.88
2023-05-14T03:47:52.195Z,9.90
2023-05-14T03:48:52.243Z,9.92
2023-05-14T03:49:52.092Z,9.92
2023-05-14T03:50:52.108Z,9.92
2023-05-14T03:51:52.129Z,9.88
2023-05-14T03:52:52.161Z,9.91
2023-05-14T03:53:52.053Z,9.94
2023-05-14T03:54:52.025Z,9.95
2023-05-14T03:55:52.000Z,9.99
2023-05-14T03:56:51.988Z,9.97
2023-05-14T03:57:52.003Z,9.99
2023-05-14T03:58:52.184Z,10.00
2023-05-14T03:59:51.955Z,10.02
2023-05-14T04:00:51.960Z,10.05
2023-05-14T04:01:51.928Z,10.02
2023-05-14T04:02:52.036Z,10.00
2023-05-14T04:03:52.179Z,9.99
2023-05-14T04:04:52.217Z,9.99
2023-05-14T04:05:52.429Z,9.97
2023-05-14T04:06:51.870Z,9.95
2023-05-14T04:07:51.861Z,9.92
2023-05-14T04:08:51.836Z,9.91
2023-05-14T04:09:51.832Z,9.92
2023-05-14T04:10:52.082Z,9.90
2023-05-14T04:11:51.818Z,9.88
2023-05-14T04:12:51.791Z,9.84
2023-05-14T04:13:51.768Z,9.80
2023-05-14T04:14:52.010Z,9.77
2023-05-14T04:15:51.843Z,9.77
2023-05-14T04:16:51.758Z,9.81
2023-05-14T04:17:51.736Z,9.85
2023-05-14T04:18:51.751Z,9.91
2023-05-14T04:19:51.940Z,9.94
2023-05-14T04:20:51.668Z,9.94
2023-05-14T04:21:51.755Z,9.88
2023-05-14T04:22:51.652Z,9.87
2023-05-14T04:23:51.653Z,9.84
2023-05-14T04:24:51.629Z,9.82
2023-05-14T04:25:51.615Z,9.82
2023-05-14T04:26:51.665Z,9.82
2023-05-14T04:27:51.639Z,9.84
2023-05-14T04:28:51.560Z,9.81
2023-05-14T04:29:51.543Z,9.82
2023-05-14T04:30:51.697Z,9.82
2023-05-14T04:31:51.603Z,9.82
2023-05-14T04:32:51.557Z,9.82
2023-05-14T04:33:51.533Z,9.84
2023-05-14T04:34:51.553Z,9.81
2023-05-14T04:35:51.512Z,9.81
2023-05-14T04:36:51.474Z,9.81
2023-05-14T04:37:51.435Z,9.81
2023-05-14T04:38:51.434Z,9.81
2023-05-14T04:39:51.439Z,9.77
2023-05-14T04:40:51.462Z,9.77
2023-05-14T04:41:51.404Z,9.76
2023-05-14T04:42:51.472Z,9.76
2023-05-14T04:43:51.573Z,9.72
2023-05-14T04:44:51.517Z,9.74
2023-05-14T04:45:51.358Z,9.76
2023-05-14T04:46:51.330Z,9.77
2023-05-14T04:47:51.427Z,9.81
2023-05-14T04:48:51.285Z,9.84
2023-05-14T04:49:51.290Z,9.87
2023-05-14T04:50:51.291Z,9.90
2023-05-14T04:51:51.246Z,9.88
2023-05-14T04:52:51.231Z,9.90
2023-05-14T04:53:51.218Z,9.92
2023-05-14T04:54:51.295Z,9.94
2023-05-14T04:55:51.192Z,9.91
2023-05-14T04:56:51.197Z,9.87
2023-05-14T04:57:51.152Z,9.87
2023-05-14T04:58:51.152Z,9.85
2023-05-14T04:59:51.149Z,9.82
2023-05-14T05:00:51.190Z,9.82
2023-05-14T05:01:51.114Z,9.82
2023-05-14T05:02:51.164Z,9.84
2023-05-14T05:03:51.124Z,9.88
2023-05-14T05:04:51.081Z,9.87
2023-05-14T05:05:51.059Z,9.85
2023-05-14T05:06:51.066Z,9.84
2023-05-14T05:07:51.037Z,9.87
2023-05-14T05:08:51.040Z,9.87
2023-05-14T05:09:51.027Z,9.84
2023-05-14T05:10:50.994Z,9.87
2023-05-14T05:11:50.980Z,9.85
2023-05-14T05:12:51.008Z,9.82
2023-05-14T05:13:50.966Z,9.82
2023-05-14T05:14:50.937Z,9.82
2023-05-14T05:15:50.986Z,9.82
2023-05-14T05:16:50.915Z,9.81
2023-05-14T05:17:51.035Z,9.74
2023-05-14T05:18:50.951Z,9.73
2023-05-14T05:19:50.867Z,9.70
2023-05-14T05:20:50.860Z,9.70
2023-05-14T05:21:50.844Z,9.73
2023-05-14T05:22:50.842Z,9.76
2023-05-14T05:23:50.834Z,9.77
2023-05-14T05:24:50.811Z,9.74
2023-05-14T05:25:50.786Z,9.74
2023-05-14T05:26:50.783Z,9.77
2023-05-14T05:27:50.762Z,9.80
2023-05-14T05:28:50.793Z,9.76
2023-05-14T05:29:50.743Z,9.74
2023-05-14T05:30:50.742Z,9.74
2023-05-14T05:31:50.762Z,9.76
2023-05-14T05:32:50.776Z,9.80
2023-05-14T05:33:50.702Z,9.85
2023-05-14T05:34:50.664Z,9.88
2023-05-14T05:35:50.656Z,9.91
2023-05-14T05:36:50.686Z,9.90
2023-05-14T05:37:50.646Z,9.90
2023-05-14T05:38:50.618Z,9.90
2023-05-14T05:39:50.610Z,9.91
2023-05-14T05:40:50.630Z,9.94
2023-05-14T05:41:50.589Z,9.99
2023-05-14T05:42:50.576Z,10.03
2023-05-14T05:43:50.550Z,10.03
2023-05-14T05:44:50.533Z,10.03
2023-05-14T05:45:50.526Z,10.03
2023-05-14T05:46:50.607Z,10.06
2023-05-14T05:47:50.588Z,10.07
2023-05-14T05:48:50.480Z,10.09
2023-05-14T05:49:50.474Z,10.09
2023-05-14T05:50:50.452Z,10.03
2023-05-14T05:51:50.465Z,10.02
2023-05-14T05:52:50.425Z,10.00
2023-05-14T05:53:50.419Z,10.00
2023-05-14T05:54:50.517Z,10.02
2023-05-14T05:55:50.391Z,10.05
2023-05-14T05:56:50.386Z,10.09
2023-05-14T05:57:50.374Z,10.06
2023-05-14T05:58:50.355Z,10.06
2023-05-14T05:59:50.334Z,10.10
2023-05-14T06:00:57.637Z,10.13
2023-05-14T06:01:50.365Z,10.18
2023-05-14T06:02:50.325Z,10.20
2023-05-14T06:03:50.283Z,10.21
2023-05-14T06:04:50.341Z,10.18
2023-05-14T06:05:50.303Z,10.15
2023-05-14T06:06:50.251Z,10.12
2023-05-14T06:07:50.243Z,10.09
2023-05-14T06:08:50.230Z,10.05
2023-05-14T06:09:50.202Z,10.06
2023-05-14T06:10:50.214Z,10.07
2023-05-14T06:11:50.176Z,10.09
2023-05-14T06:12:50.157Z,10.10
2023-05-14T06:13:50.192Z,10.07
2023-05-14T06:14:50.145Z,10.03
2023-05-14T06:15:50.126Z,10.05
2023-05-14T06:16:50.169Z,10.09
2023-05-14T06:17:50.132Z,10.12
2023-05-14T06:18:50.106Z,10.17
2023-05-14T06:19:50.105Z,10.23
2023-05-14T06:20:50.069Z,10.27
2023-05-14T06:21:50.052Z,10.25
2023-05-14T06:22:50.030Z,10.24
2023-05-14T06:23:50.051Z,10.28
2023-05-14T06:24:50.030Z,10.33
2023-05-14T06:25:50.760Z,10.36
2023-05-14T06:26:49.979Z,10.43
2023-05-14T06:27:49.966Z,10.48
2023-05-14T06:28:49.945Z,10.51
2023-05-14T06:29:49.965Z,10.48
2023-05-14T06:30:49.921Z,10.48
2023-05-14T06:31:49.963Z,10.48
2023-05-14T06:32:49.952Z,10.49
2023-05-14T06:33:49.906Z,10.57
2023-05-14T06:34:49.906Z,10.62
2023-05-14T06:35:49.860Z,10.68
2023-05-14T06:36:49.865Z,10.72
2023-05-14T06:37:49.829Z,10.76
2023-05-14T06:38:49.835Z,10.79
2023-05-14T06:39:49.934Z,10.84
2023-05-14T06:40:49.792Z,10.87
2023-05-14T06:41:49.768Z,10.92
2023-05-14T06:42:49.754Z,10.97
2023-05-14T06:43:49.751Z,10.98
2023-05-14T06:44:49.732Z,11.00
2023-05-14T06:45:49.721Z,11.02
2023-05-14T06:46:49.722Z,11.08
2023-05-14T06:47:49.731Z,11.08
2023-05-14T06:48:49.742Z,11.10
2023-05-14T06:49:49.662Z,11.12
2023-05-14T06:50:49.680Z,11.16
2023-05-14T06:51:49.652Z,11.18
2023-05-14T06:52:49.636Z,11.18
2023-05-14T06:53:49.640Z,11.15
2023-05-14T06:54:49.696Z,11.18
2023-05-14T06:55:49.583Z,11.18
2023-05-14T06:56:49.574Z,11.19
2023-05-14T06:57:49.574Z,11.20
2023-05-14T06:58:49.533Z,11.22
2023-05-14T06:59:50.237Z,11.25
2023-05-14T07:00:49.509Z,11.27
2023-05-14T07:01:49.535Z,11.33
2023-05-14T07:02:49.560Z,11.41
2023-05-14T07:03:49.526Z,11.41
2023-05-14T07:04:49.491Z,11.44
2023-05-14T07:05:49.482Z,11.52
2023-05-14T07:06:49.436Z,11.59
2023-05-14T07:07:49.445Z,11.60
2023-05-14T07:08:50.448Z,11.60
2023-05-14T07:09:49.400Z,11.68
2023-05-14T07:10:49.388Z,11.76
2023-05-14T07:11:49.391Z,11.81
2023-05-14T07:12:49.394Z,11.88
2023-05-14T07:13:49.351Z,11.96
2023-05-14T07:14:49.319Z,12.02
2023-05-14T07:15:49.334Z,12.07
2023-05-14T07:16:49.422Z,12.11
2023-05-14T07:17:49.390Z,12.12
2023-05-14T07:18:49.341Z,12.17
2023-05-14T07:19:49.277Z,12.21
2023-05-14T07:20:49.303Z,12.20
2023-05-14T07:21:49.272Z,12.20
2023-05-14T07:22:49.220Z,12.23
2023-05-14T07:23:49.214Z,12.15
2023-05-14T07:24:49.193Z,12.14
2023-05-14T07:25:49.193Z,12.12
2023-05-14T07:26:49.191Z,12.14
2023-05-14T07:27:49.160Z,12.18
2023-05-14T07:28:49.151Z,12.15
2023-05-14T07:29:49.276Z,12.15
2023-05-14T07:30:49.217Z,12.20
2023-05-14T07:31:49.254Z,12.23
2023-05-14T07:32:49.271Z,12.23
2023-05-14T07:33:49.096Z,12.23
2023-05-14T07:34:49.581Z,12.25
2023-05-14T07:35:49.185Z,12.28
2023-05-14T07:36:50.110Z,12.28
2023-05-14T07:37:49.405Z,12.29
2023-05-14T07:38:49.181Z,12.29
2023-05-14T07:39:49.556Z,12.26
2023-05-14T07:40:49.813Z,12.21
2023-05-14T07:41:49.272Z,12.17
2023-05-14T07:42:49.079Z,12.12
2023-05-14T07:43:49.065Z,12.14
2023-05-14T07:44:48.982Z,12.18
2023-05-14T07:45:49.115Z,12.23
2023-05-14T07:46:49.095Z,12.28
2023-05-14T07:47:49.022Z,12.33
2023-05-14T07:48:48.916Z,12.37
2023-05-14T07:49:48.873Z,12.45
2023-05-14T07:50:48.851Z,12.50
2023-05-14T07:51:48.825Z,12.57
2023-05-14T07:52:48.808Z,12.61
2023-05-14T07:53:48.838Z,12.68
2023-05-14T07:54:50.587Z,12.69
2023-05-14T07:55:48.782Z,12.69
2023-05-14T07:56:48.792Z,12.70
2023-05-14T07:57:48.755Z,12.65
2023-05-14T07:58:48.854Z,12.66
2023-05-14T07:59:48.742Z,12.72
2023-05-14T08:00:48.702Z,12.83
2023-05-14T08:01:48.770Z,12.91
2023-05-14T08:02:48.910Z,12.98
2023-05-14T08:03:48.814Z,13.02
2023-05-14T08:04:48.797Z,13.08
2023-05-14T08:05:49.409Z,13.13
2023-05-14T08:06:48.682Z,13.17
2023-05-14T08:07:48.621Z,13.23
2023-05-14T08:08:48.751Z,13.28
2023-05-14T08:09:48.581Z,13.31
2023-05-14T08:10:48.596Z,13.37
2023-05-14T08:11:48.563Z,13.39
2023-05-14T08:12:48.601Z,13.46
2023-05-14T08:13:48.545Z,13.49
2023-05-14T08:14:48.521Z,13.52
2023-05-14T08:15:48.517Z,13.57
2023-05-14T08:16:48.578Z,13.61
2023-05-14T08:17:48.578Z,13.67
2023-05-14T08:18:48.496Z,13.73
2023-05-14T08:19:48.481Z,13.79
2023-05-14T08:20:48.443Z,13.82
2023-05-14T08:21:48.426Z,13.87
2023-05-14T08:22:48.437Z,13.94
2023-05-14T08:23:48.423Z,13.98
2023-05-14T08:24:48.397Z,14.04
2023-05-14T08:25:48.385Z,14.08
2023-05-14T08:26:48.373Z,14.13
2023-05-14T08:27:48.369Z,14.20
2023-05-14T08:28:48.338Z,14.25
2023-05-14T08:29:48.342Z,14.30
2023-05-14T08:30:48.350Z,14.37
2023-05-14T08:31:48.297Z,14.43
2023-05-14T08:32:48.324Z,14.51
2023-05-14T08:33:48.265Z,14.58
2023-05-14T08:34:48.241Z,14.62
2023-05-14T08:35:48.231Z,14.68
2023-05-14T08:36:48.233Z,14.71
2023-05-14T08:37:48.206Z,14.74
2023-05-14T08:38:48.199Z,14.77
2023-05-14T08:39:48.191Z,14.79
2023-05-14T08:40:48.163Z,14.89
2023-05-14T08:41:48.172Z,14.94
2023-05-14T08:42:48.149Z,14.99
2023-05-14T08:43:48.123Z,15.00
2023-05-14T08:44:48.118Z,15.04
2023-05-14T08:45:48.153Z,15.05
2023-05-14T08:46:48.114Z,15.05
2023-05-14T08:47:48.115Z,15.08
2023-05-14T08:48:48.077Z,15.10
2023-05-14T08:49:48.091Z,15.15
2023-05-14T08:50:48.430Z,15.26
2023-05-14T08:51:48.038Z,15.33
2023-05-14T08:52:48.011Z,15.41
2023-05-14T08:53:48.006Z,15.44
2023-05-14T08:54:47.980Z,15.50
2023-05-14T08:55:47.976Z,15.52
2023-05-14T08:56:49.363Z,15.55
2023-05-14T08:57:47.960Z,15.62
2023-05-14T08:58:47.933Z,15.70
2023-05-14T08:59:48.055Z,15.75
2023-05-14T09:00:47.927Z,15.80
2023-05-14T09:01:47.951Z,15.88
2023-05-14T09:02:47.995Z,15.94
2023-05-14T09:03:47.933Z,16.00
2023-05-14T09:04:47.868Z,16.05
2023-05-14T09:05:47.872Z,16.06
2023-05-14T09:06:47.850Z,16.16
2023-05-14T09:07:47.813Z,16.17
2023-05-14T09:08:47.800Z,16.18
2023-05-14T09:09:47.809Z,16.21
2023-05-14T09:10:47.800Z,16.21
2023-05-14T09:11:47.760Z,16.25
2023-05-14T09:12:47.740Z,16.31
2023-05-14T09:13:47.719Z,16.36
2023-05-14T09:14:47.721Z,16.39
2023-05-14T09:15:47.702Z,16.41
2023-05-14T09:16:47.783Z,16.41
2023-05-14T09:17:47.699Z,16.43
2023-05-14T09:18:47.766Z,16.43
2023-05-14T09:19:47.692Z,16.44
2023-05-14T09:20:47.655Z,16.49
2023-05-14T09:21:47.625Z,16.51
2023-05-14T09:22:47.612Z,16.57
2023-05-14T09:23:47.612Z,16.59
2023-05-14T09:24:47.592Z,16.68
2023-05-14T09:25:47.571Z,16.69
2023-05-14T09:26:47.619Z,16.77
2023-05-14T09:27:47.542Z,16.83
2023-05-14T09:28:47.542Z,16.91
2023-05-14T09:29:47.505Z,16.94
2023-05-14T09:30:48.001Z,16.95
2023-05-14T09:31:47.582Z,16.94
2023-05-14T09:32:47.525Z,16.99
2023-05-14T09:33:47.499Z,17.05
2023-05-14T09:34:47.440Z,17.12
2023-05-14T09:35:47.445Z,17.13
2023-05-14T09:36:47.423Z,17.12
2023-05-14T09:37:47.411Z,17.13
2023-05-14T09:38:47.406Z,17.09
2023-05-14T09:39:47.381Z,17.07
2023-05-14T09:40:47.351Z,17.04
2023-05-14T09:41:47.404Z,17.04
2023-05-14T09:42:47.316Z,17.05
2023-05-14T09:43:47.333Z,16.99
2023-05-14T09:44:47.321Z,17.01
2023-05-14T09:45:47.299Z,17.05
2023-05-14T09:46:47.395Z,17.09
2023-05-14T09:47:47.405Z,17.13
2023-05-14T09:48:47.271Z,17.19
2023-05-14T09:49:47.254Z,17.22
2023-05-14T09:50:47.250Z,17.24
2023-05-14T09:51:47.222Z,17.23
2023-05-14T09:52:47.194Z,17.23
2023-05-14T09:53:47.213Z,17.24
2023-05-14T09:54:47.199Z,17.24
2023-05-14T09:55:47.163Z,17.28
2023-05-14T09:56:47.128Z,17.28
2023-05-14T09:57:47.155Z,17.30
2023-05-14T09:58:47.227Z,17.31
2023-05-14T09:59:47.104Z,17.35
2023-05-14T10:00:47.208Z,17.41
2023-05-14T10:01:47.073Z,17.46
2023-05-14T10:02:47.192Z,17.49
2023-05-14T10:03:47.089Z,17.49
2023-05-14T10:04:47.133Z,17.52
2023-05-14T10:05:47.029Z,17.53
2023-05-14T10:06:47.030Z,17.54
2023-05-14T10:07:50.022Z,17.56
2023-05-14T10:08:46.999Z,17.53
2023-05-14T10:09:46.968Z,17.52
2023-05-14T10:10:46.961Z,17.54
2023-05-14T10:11:47.364Z,17.57
2023-05-14T10:12:47.006Z,17.63
2023-05-14T10:13:46.918Z,17.65
2023-05-14T10:14:46.914Z,17.66
2023-05-14T10:15:46.907Z,17.73
2023-05-14T10:16:46.952Z,17.80
2023-05-14T10:17:47.003Z,17.86
2023-05-14T10:18:46.924Z,17.88
2023-05-14T10:19:46.838Z,17.93
2023-05-14T10:20:46.825Z,17.94
2023-05-14T10:21:46.800Z,17.95
2023-05-14T10:22:46.825Z,18.03
2023-05-14T10:23:48.903Z,18.08
2023-05-14T10:24:46.773Z,18.11
2023-05-14T10:25:46.776Z,18.16
2023-05-14T10:26:46.791Z,18.18
2023-05-14T10:27:46.852Z,18.13
2023-05-14T10:28:46.718Z,18.12
2023-05-14T10:29:46.720Z,18.15
2023-05-14T10:30:46.818Z,18.18
2023-05-14T10:31:46.863Z,18.19
2023-05-14T10:32:46.683Z,18.18
2023-05-14T10:33:46.660Z,18.21
2023-05-14T10:34:46.636Z,18.24
2023-05-14T10:35:46.627Z,18.18
2023-05-14T10:36:46.627Z,18.11
2023-05-14T10:37:46.623Z,18.08
2023-05-14T10:38:46.595Z,18.09
2023-05-14T10:39:46.558Z,18.13
2023-05-14T10:40:46.559Z,18.15
2023-05-14T10:41:46.544Z,18.08
2023-05-14T10:42:46.524Z,18.02
2023-05-14T10:43:46.513Z,17.94
2023-05-14T10:44:46.505Z,17.84
2023-05-14T10:45:46.501Z,17.76
2023-05-14T10:46:46.549Z,17.73
2023-05-14T10:47:46.475Z,17.68
2023-05-14T10:48:46.458Z,17.63
2023-05-14T10:49:46.434Z,17.59
2023-05-14T10:50:46.467Z,17.60
2023-05-14T10:51:46.420Z,17.57
2023-05-14T10:52:46.487Z,17.63
2023-05-14T10:53:46.417Z,17.71
2023-05-14T10:54:46.416Z,17.82
2023-05-14T10:55:46.361Z,17.91
2023-05-14T10:56:46.329Z,18.00
2023-05-14T10:57:46.341Z,18.11
2023-05-14T10:58:46.317Z,18.27
2023-05-14T10:59:46.319Z,18.41
2023-05-14T11:00:46.308Z,18.51
2023-05-14T11:01:46.312Z,18.57
2023-05-14T11:02:46.291Z,18.60
2023-05-14T11:03:46.707Z,18.67
2023-05-14T11:04:46.255Z,18.74
2023-05-14T11:05:46.212Z,18.82
2023-05-14T11:06:46.212Z,18.86
2023-05-14T11:07:46.213Z,18.91
2023-05-14T11:08:46.190Z,18.97
2023-05-14T11:09:46.188Z,19.00
2023-05-14T11:10:46.152Z,19.01
2023-05-14T11:11:46.214Z,19.08
2023-05-14T11:12:46.140Z,19.11
2023-05-14T11:13:46.114Z,19.16
2023-05-14T11:14:46.147Z,19.16
2023-05-14T11:15:46.117Z,19.15
2023-05-14T11:16:46.149Z,19.23
2023-05-14T11:17:46.207Z,19.27
2023-05-14T11:18:46.137Z,19.35
2023-05-14T11:19:46.050Z,19.45
2023-05-14T11:20:46.037Z,19.52
2023-05-14T11:21:46.204Z,19.56
2023-05-14T11:22:46.004Z,19.57
2023-05-14T11:23:45.997Z,19.63
2023-05-14T11:24:45.975Z,19.57
2023-05-14T11:25:46.013Z,19.47
2023-05-14T11:26:45.942Z,19.41
2023-05-14T11:27:45.923Z,19.32
2023-05-14T11:28:45.941Z,19.26
2023-05-14T11:29:45.896Z,19.19
2023-05-14T11:30:46.022Z,19.12
2023-05-14T11:31:46.210Z,19.09
2023-05-14T11:32:45.993Z,19.08
2023-05-14T11:33:45.858Z,19.08
2023-05-14T11:34:45.838Z,19.07
2023-05-14T11:35:45.815Z,19.11
2023-05-14T11:36:45.797Z,19.11
2023-05-14T11:37:45.805Z,19.08
2023-05-14T11:38:45.784Z,19.08
2023-05-14T11:39:45.769Z,19.04
2023-05-14T11:40:45.753Z,18.94
2023-05-14T11:41:45.729Z,18.92
2023-05-14T11:42:45.740Z,18.89
2023-05-14T11:43:45.928Z,18.86
2023-05-14T11:44:45.723Z,18.89
2023-05-14T11:45:45.684Z,18.94
2023-05-14T11:46:45.682Z,18.89
2023-05-14T11:47:45.666Z,18.85
2023-05-14T11:48:45.643Z,18.79
2023-05-14T11:49:45.640Z,18.76
2023-05-14T11:50:45.620Z,18.70
2023-05-14T11:51:45.620Z,18.78
2023-05-14T11:52:45.590Z,18.78
2023-05-14T11:53:45.584Z,18.74
2023-05-14T11:54:45.666Z,18.71
2023-05-14T11:55:45.548Z,18.68
2023-05-14T11:56:45.559Z,18.64
2023-05-14T11:57:45.515Z,18.64
2023-05-14T11:58:45.508Z,18.74
2023-05-14T11:59:45.488Z,18.82
2023-05-14T12:00:45.478Z,18.94
2023-05-14T12:01:53.962Z,18.92
2023-05-14T12:02:45.523Z,18.94
2023-05-14T12:03:45.595Z,19.00
2023-05-14T12:04:45.466Z,19.09
2023-05-14T12:05:45.426Z,19.12
2023-05-14T12:06:45.415Z,19.09
2023-05-14T12:07:45.384Z,19.23
2023-05-14T12:08:45.376Z,19.22
2023-05-14T12:09:45.548Z,19.24
2023-05-14T12:10:45.369Z,19.24
2023-05-14T12:11:45.327Z,19.20
2023-05-14T12:12:45.313Z,19.27
2023-05-14T12:13:45.311Z,19.37
2023-05-14T12:14:45.296Z,19.45
2023-05-14T12:15:45.379Z,19.47
2023-05-14T12:16:45.288Z,19.57
2023-05-14T12:17:45.244Z,19.56
2023-05-14T12:18:45.381Z,19.52
2023-05-14T12:19:45.251Z,19.63
2023-05-14T12:20:45.238Z,19.74
2023-05-14T12:21:45.193Z,19.78
2023-05-14T12:22:45.187Z,19.79
2023-05-14T12:23:45.183Z,19.92
2023-05-14T12:24:45.177Z,19.99
2023-05-14T12:25:45.135Z,19.96
2023-05-14T12:26:45.140Z,20.00
2023-05-14T12:27:45.133Z,20.03
2023-05-14T12:28:45.107Z,20.11
2023-05-14T12:29:45.112Z,20.21
2023-05-14T12:30:45.096Z,20.32
2023-05-14T12:31:45.106Z,20.44
2023-05-14T12:32:45.112Z,20.42
2023-05-14T12:33:45.057Z,20.49
2023-05-14T12:34:45.044Z,20.40
2023-05-14T12:35:45.012Z,20.27
2023-05-14T12:36:44.997Z,20.17
2023-05-14T12:37:44.997Z,20.11
2023-05-14T12:38:44.993Z,20.10
2023-05-14T12:39:44.963Z,20.08
2023-05-14T12:40:44.950Z,20.08
2023-05-14T12:41:44.930Z,20.21
2023-05-14T12:42:44.923Z,20.24
2023-05-14T12:43:44.921Z,20.15
2023-05-14T12:44:44.938Z,20.27
2023-05-14T12:45:44.886Z,20.24
2023-05-14T12:46:44.922Z,20.22
2023-05-14T12:47:44.849Z,20.27
2023-05-14T12:48:44.857Z,20.21
2023-05-14T12:49:44.811Z,20.26
2023-05-14T12:50:44.819Z,20.36
2023-05-14T12:51:44.794Z,20.49
2023-05-14T12:52:44.772Z,20.63
2023-05-14T12:53:44.805Z,20.68
2023-05-14T12:54:44.769Z,20.78
2023-05-14T12:55:44.732Z,20.89
2023-05-14T12:56:44.738Z,20.90
2023-05-14T12:57:44.749Z,20.98
2023-05-14T12:58:44.716Z,21.01
2023-05-14T12:59:44.668Z,21.11
2023-05-14T13:00:44.695Z,21.19